WetterOnline ( https://www.wetteronline.at )

Wetter aktuell Hof Mondschirm

Aktuelles Wetter: Schauenburg-Elgershausen (317m)

6-stündlich | Neueste Meldungen
Ortszeit Temperatur Wetter
Mo, 27.05. 8:00 13.6° C Sprühregen
Mo, 27.05. 2:00 15.9° C bedeckt
So, 26.05. 20:00 18.7° C bedeckt
So, 26.05. 14:00 18.4° C wolkig
So, 26.05. 8:00 9.7° C wolkig
So, 26.05. 2:00 6.9° C fast wolkenlos
Sa, 25.05. 20:00 13.8° C leicht bewölkt
Sa, 25.05. 14:00 13.5° C wolkig
Ortszeit Temperatur Wetter
Mo, 27.05. 13:30 15.4° C bedeckt
Mo, 27.05. 13:10 15.5° C bedeckt
Mo, 27.05. 13:00 15.5° C Sprühregen
Mo, 27.05. 12:50 15.5° C Sprühregen
Mo, 27.05. 12:40 15.3° C bedeckt
Mo, 27.05. 12:30 14.2° C leichter Regen
Mo, 27.05. 12:00 14.5° C Sprühregen
Mo, 27.05. 11:30 14.3° C Sprühregen
Mo, 27.05. 11:00 13.7° C Sprühregen
Mo, 27.05. 10:30 14.8° C bedeckt
Ortszeit Relative Feuchte Sichtweite
Mo, 27.05. 8:00 86% 15 km
Mo, 27.05. 2:00 67% >70 km
So, 26.05. 20:00 52% 60 km
So, 26.05. 14:00 46% 45 km
So, 26.05. 8:00 87% 27 km
So, 26.05. 2:00 93% 26 km
Sa, 25.05. 20:00 65% 50 km
Sa, 25.05. 14:00 73% 50 km
Ortszeit Relative Feuchte Sichtweite
Mo, 27.05. 13:30 83% 45 km
Mo, 27.05. 13:10 85% -
Mo, 27.05. 13:00 87% 40 km
Mo, 27.05. 12:50 87% -
Mo, 27.05. 12:40 88% -
Mo, 27.05. 12:30 94% 10 km
Mo, 27.05. 12:00 90% 3.6 km
Mo, 27.05. 11:30 94% 3.0 km
Mo, 27.05. 11:00 94% 6 km
Mo, 27.05. 10:30 81% >70 km
Ortszeit Niederschlagsmenge Niederschlagsart
Mo, 27.05. 8:00 0.1 l/m2 in 12 Std. Regen
Mo, 27.05. 2:00 0.0 l/m2 in 6 Std. -
So, 26.05. 20:00 0.0 l/m2 in 12 Std. -
So, 26.05. 14:00 0.0 l/m2 in 6 Std. -
So, 26.05. 8:00 0.0 l/m2 in 12 Std. -
So, 26.05. 2:00 0.0 l/m2 in 6 Std. -
Sa, 25.05. 20:00 0.0 l/m2 in 12 Std. -
Sa, 25.05. 14:00 0.0 l/m2 in 6 Std. -
Ortszeit Niederschlagsmenge Niederschlagsart
Mo, 27.05. 13:30 0.1 l/m2 in 1 Std. Schnee
Mo, 27.05. 13:10 keine Meldung -
Mo, 27.05. 13:00 2.3 l/m2 in 1 Std. Regen
Mo, 27.05. 12:50 keine Meldung -
Mo, 27.05. 12:40 keine Meldung -
Mo, 27.05. 12:30 2.3 l/m2 in 1 Std. -
Mo, 27.05. 12:00 0.8 l/m2 in 1 Std. Regen
Mo, 27.05. 11:30 0.7 l/m2 in 1 Std. -
Mo, 27.05. 11:00 0.6 l/m2 in 1 Std. Regen
Mo, 27.05. 10:30 0.1 l/m2 in 1 Std. Schnee
Ortszeit Stärke Spitze Richtung
km/h Bft. km/h Grad Sektor
Mo, 27.05. 8:00 7 2 22 260° W
Mo, 27.05. 2:00 7 2 18 220° SW
So, 26.05. 20:00 6 1 35 220° SW
So, 26.05. 14:00 14 3 29 230° SW
So, 26.05. 8:00 4 1 11 140° SO
So, 26.05. 2:00 4 1 14 330° NW
Sa, 25.05. 20:00 9 2 28 310° NW
Sa, 25.05. 14:00 14 3 25 280° W
Ortszeit Stärke Spitze Richtung
km/h Bft. km/h Grad Sektor
Mo, 27.05. 13:30 13 3 20 310° NW
Mo, 27.05. 13:10 7 2 - 310° NW
Mo, 27.05. 13:00 9 2 17 310° NW
Mo, 27.05. 12:50 9 2 - 310° NW
Mo, 27.05. 12:40 9 2 - 300° NW
Mo, 27.05. 12:30 7 2 18 290° W
Mo, 27.05. 12:00 9 2 15 230° SW
Mo, 27.05. 11:30 4 1 11 100° O
Mo, 27.05. 11:00 9 2 15 170° S
Mo, 27.05. 10:30 7 2 14 230° SW
Ortszeit Untergrenze Bedeckung Gattung
total tief tief mittel hoch
Mo, 27.05. 8:00 660 m 8/8 8/8 - - -
Mo, 27.05. 2:00 1800 m 8/8 8/8 - - -
So, 26.05. 20:00 2100 m 8/8 8/8 - - -
So, 26.05. 14:00 1500 m 7/8 3/8 - - -
So, 26.05. 8:00 5100 m 8/8 8/8 - - -
So, 26.05. 2:00 9000 m 2/8 0/8 - - -
Sa, 25.05. 20:00 1200 m 2/8 2/8 - - -
Sa, 25.05. 14:00 660 m 6/8 6/8 - - -
Ortszeit Bedeckungsgrad in Achtel und Wolkenuntergrenze
Mo, 27.05. 13:30 6(420m) 7(660m) 8(2700m)
Mo, 27.05. 13:10 6(450m) 7(780m) 8(1800m)
Mo, 27.05. 13:00 4(450m) 8(1800m) 8(2700m)
Mo, 27.05. 12:50 4(450m) 8(1800m) 8(2700m)
Mo, 27.05. 12:40 3(390m) 7(1500m) 8(1800m)
Mo, 27.05. 12:30 3(270m) 7(1260m) 8(1500m)
Mo, 27.05. 12:00 2(180m) 7(570m) 8(1140m)
Mo, 27.05. 11:30 3(270m) 7(1080m) 8(1410m)
Mo, 27.05. 11:00 7(450m) 7(510m)
Mo, 27.05. 10:30 8(570m)
Ortszeit Luftdruck NN (hPa) Tendenz (hPa in 3 Std.)
Mo, 27.05. 8:00 1009 + 0,2
Mo, 27.05. 2:00 1009 - 1,4
So, 26.05. 20:00 1011 - 1,2
So, 26.05. 14:00 1013 - 1,1
So, 26.05. 8:00 1016 - 0,3
So, 26.05. 2:00 1018 - 0,7
Sa, 25.05. 20:00 1017 + 0,2
Sa, 25.05. 14:00 1017 + 0,1
Ortszeit Luftdruck NN (hPa) Tendenz (hPa in 3 Std.)
Mo, 27.05. 13:30 1009 + 0,2
Mo, 27.05. 13:10 1009 keine Meldung
Mo, 27.05. 13:00 1009 + 0,1
Mo, 27.05. 12:50 1009 keine Meldung
Mo, 27.05. 12:40 1009 keine Meldung
Mo, 27.05. 12:30 1009 + 0,3
Mo, 27.05. 12:00 1009 + 0,3
Mo, 27.05. 11:30 1009 + 0,1
Mo, 27.05. 11:00 1009 + 0,3
Mo, 27.05. 10:30 1009 + 0,4
Ortszeit Schneehöhe (cm)
Mo, 27.05. 8:00 -
Mo, 27.05. 2:00 -
So, 26.05. 20:00 -
So, 26.05. 14:00 -
So, 26.05. 8:00 -
So, 26.05. 2:00 -
Sa, 25.05. 20:00 -
Sa, 25.05. 14:00 -
Ortszeit Schneehöhe (cm)
Mo, 27.05. 13:30 -
Mo, 27.05. 13:10 -
Mo, 27.05. 13:00 -
Mo, 27.05. 12:50 -
Mo, 27.05. 12:40 -
Mo, 27.05. 12:30 -
Mo, 27.05. 12:00 -
Mo, 27.05. 11:30 -
Mo, 27.05. 11:00 -
Mo, 27.05. 10:30 -
Link zu dieser Seite / Seite empfehlen

Das Wetter in ...